sensor_id;sensor_type;location;lat;lon;timestamp;P1;durP1;ratioP1;P2;durP2;ratioP2
41293;SDS011;27037;52.010;4.446;2023-07-20T00:02:23;7.57;;;4.40;;
41293;SDS011;27037;52.010;4.446;2023-07-20T00:04:49;9.40;;;4.40;;
41293;SDS011;27037;52.010;4.446;2023-07-20T00:07:14;7.00;;;4.70;;
41293;SDS011;27037;52.010;4.446;2023-07-20T00:09:40;7.53;;;4.47;;
41293;SDS011;27037;52.010;4.446;2023-07-20T00:12:06;9.32;;;4.30;;
41293;SDS011;27037;52.010;4.446;2023-07-20T00:14:32;10.40;;;4.75;;
41293;SDS011;27037;52.010;4.446;2023-07-20T00:16:57;7.55;;;5.20;;
41293;SDS011;27037;52.010;4.446;2023-07-20T00:19:23;8.80;;;4.78;;
41293;SDS011;27037;52.010;4.446;2023-07-20T00:21:53;11.73;;;5.53;;
41293;SDS011;27037;52.010;4.446;2023-07-20T00:24:20;9.20;;;4.45;;
41293;SDS011;27037;52.010;4.446;2023-07-20T00:26:45;7.60;;;4.47;;
41293;SDS011;27037;52.010;4.446;2023-07-20T00:29:11;7.10;;;3.88;;
41293;SDS011;27037;52.010;4.446;2023-07-20T00:31:37;6.43;;;4.05;;
41293;SDS011;27037;52.010;4.446;2023-07-20T00:34:03;6.10;;;3.40;;
41293;SDS011;27037;52.010;4.446;2023-07-20T00:36:29;7.80;;;3.05;;
41293;SDS011;27037;52.010;4.446;2023-07-20T00:38:55;6.63;;;3.28;;
41293;SDS011;27037;52.010;4.446;2023-07-20T00:41:21;4.00;;;2.78;;
41293;SDS011;27037;52.010;4.446;2023-07-20T00:43:47;4.95;;;2.78;;
41293;SDS011;27037;52.010;4.446;2023-07-20T00:46:13;3.00;;;2.53;;
41293;SDS011;27037;52.010;4.446;2023-07-20T00:48:39;5.30;;;2.78;;
41293;SDS011;27037;52.010;4.446;2023-07-20T00:51:06;4.20;;;2.30;;
41293;SDS011;27037;52.010;4.446;2023-07-20T00:53:32;5.68;;;2.60;;
41293;SDS011;27037;52.010;4.446;2023-07-20T00:55:58;4.57;;;2.90;;
41293;SDS011;27037;52.010;4.446;2023-07-20T00:58:24;6.30;;;3.60;;
41293;SDS011;27037;52.010;4.446;2023-07-20T01:00:49;7.60;;;3.20;;
41293;SDS011;27037;52.010;4.446;2023-07-20T01:03:16;8.43;;;4.03;;
41293;SDS011;27037;52.010;4.446;2023-07-20T01:08:55;7.13;;;3.58;;
41293;SDS011;27037;52.010;4.446;2023-07-20T01:11:32;6.82;;;3.80;;
41293;SDS011;27037;52.010;4.446;2023-07-20T01:14:03;5.88;;;3.70;;
41293;SDS011;27037;52.010;4.446;2023-07-20T01:16:30;3.80;;;2.92;;
41293;SDS011;27037;52.010;4.446;2023-07-20T01:18:56;5.10;;;2.90;;
41293;SDS011;27037;52.010;4.446;2023-07-20T01:21:24;5.07;;;2.80;;
41293;SDS011;27037;52.010;4.446;2023-07-20T01:32:19;3.63;;;1.65;;
41293;SDS011;27037;52.010;4.446;2023-07-20T01:34:48;2.22;;;1.30;;
41293;SDS011;27037;52.010;4.446;2023-07-20T01:37:17;2.95;;;1.40;;
41293;SDS011;27037;52.010;4.446;2023-07-20T01:39:45;4.00;;;1.48;;
41293;SDS011;27037;52.010;4.446;2023-07-20T01:42:11;2.38;;;1.30;;
41293;SDS011;27037;52.010;4.446;2023-07-20T01:44:38;2.00;;;1.20;;
41293;SDS011;27037;52.010;4.446;2023-07-20T01:47:04;4.13;;;1.30;;
41293;SDS011;27037;52.010;4.446;2023-07-20T01:49:29;1.35;;;1.25;;
41293;SDS011;27037;52.010;4.446;2023-07-20T01:51:55;2.15;;;1.50;;
41293;SDS011;27037;52.010;4.446;2023-07-20T01:54:21;2.03;;;1.10;;
41293;SDS011;27037;52.010;4.446;2023-07-20T01:56:46;1.60;;;1.15;;
41293;SDS011;27037;52.010;4.446;2023-07-20T01:59:12;5.25;;;1.52;;
41293;SDS011;27037;52.010;4.446;2023-07-20T02:01:37;2.63;;;1.30;;
41293;SDS011;27037;52.010;4.446;2023-07-20T02:04:03;1.52;;;1.10;;
41293;SDS011;27037;52.010;4.446;2023-07-20T02:06:29;1.27;;;1.17;;
41293;SDS011;27037;52.010;4.446;2023-07-20T02:08:55;3.13;;;1.20;;
41293;SDS011;27037;52.010;4.446;2023-07-20T02:11:20;1.30;;;1.10;;
41293;SDS011;27037;52.010;4.446;2023-07-20T02:13:46;1.50;;;1.10;;
41293;SDS011;27037;52.010;4.446;2023-07-20T02:16:11;1.75;;;1.10;;
41293;SDS011;27037;52.010;4.446;2023-07-20T02:18:37;1.23;;;1.13;;
41293;SDS011;27037;52.010;4.446;2023-07-20T02:21:03;2.25;;;1.27;;
41293;SDS011;27037;52.010;4.446;2023-07-20T02:23:28;1.88;;;1.00;;
41293;SDS011;27037;52.010;4.446;2023-07-20T02:25:54;2.30;;;1.10;;
41293;SDS011;27037;52.010;4.446;2023-07-20T02:28:20;2.92;;;1.00;;
41293;SDS011;27037;52.010;4.446;2023-07-20T02:30:45;2.17;;;1.00;;
41293;SDS011;27037;52.010;4.446;2023-07-20T02:33:11;3.67;;;1.10;;
41293;SDS011;27037;52.010;4.446;2023-07-20T02:35:37;1.27;;;1.17;;
41293;SDS011;27037;52.010;4.446;2023-07-20T02:38:02;1.45;;;1.10;;
41293;SDS011;27037;52.010;4.446;2023-07-20T02:40:28;1.75;;;1.05;;
41293;SDS011;27037;52.010;4.446;2023-07-20T02:42:54;1.73;;;1.05;;
41293;SDS011;27037;52.010;4.446;2023-07-20T02:45:19;2.92;;;1.40;;
41293;SDS011;27037;52.010;4.446;2023-07-20T02:47:45;2.25;;;1.20;;
41293;SDS011;27037;52.010;4.446;2023-07-20T02:50:11;3.67;;;1.23;;
41293;SDS011;27037;52.010;4.446;2023-07-20T02:52:39;3.42;;;1.13;;
41293;SDS011;27037;52.010;4.446;2023-07-20T02:55:04;1.60;;;1.20;;
41293;SDS011;27037;52.010;4.446;2023-07-20T02:57:30;1.45;;;1.13;;
41293;SDS011;27037;52.010;4.446;2023-07-20T02:59:56;4.28;;;1.27;;
41293;SDS011;27037;52.010;4.446;2023-07-20T03:02:21;2.72;;;1.38;;
41293;SDS011;27037;52.010;4.446;2023-07-20T03:04:47;2.72;;;1.40;;
41293;SDS011;27037;52.010;4.446;2023-07-20T03:07:13;1.65;;;1.55;;
41293;SDS011;27037;52.010;4.446;2023-07-20T03:09:38;4.20;;;1.48;;
41293;SDS011;27037;52.010;4.446;2023-07-20T03:12:04;2.28;;;1.65;;
41293;SDS011;27037;52.010;4.446;2023-07-20T03:14:30;2.33;;;1.60;;
41293;SDS011;27037;52.010;4.446;2023-07-20T03:16:56;2.88;;;1.60;;
41293;SDS011;27037;52.010;4.446;2023-07-20T03:19:22;4.00;;;1.60;;
41293;SDS011;27037;52.010;4.446;2023-07-20T03:21:47;4.20;;;1.63;;
41293;SDS011;27037;52.010;4.446;2023-07-20T03:24:13;2.58;;;1.73;;
41293;SDS011;27037;52.010;4.446;2023-07-20T03:26:39;5.15;;;1.77;;
41293;SDS011;27037;52.010;4.446;2023-07-20T03:29:05;2.75;;;1.77;;
41293;SDS011;27037;52.010;4.446;2023-07-20T03:31:31;3.20;;;1.50;;
41293;SDS011;27037;52.010;4.446;2023-07-20T03:33:57;2.10;;;1.75;;
41293;SDS011;27037;52.010;4.446;2023-07-20T03:36:23;4.75;;;1.88;;
41293;SDS011;27037;52.010;4.446;2023-07-20T03:38:48;4.10;;;1.80;;
41293;SDS011;27037;52.010;4.446;2023-07-20T03:41:15;4.80;;;1.50;;
41293;SDS011;27037;52.010;4.446;2023-07-20T03:43:41;4.93;;;1.90;;
41293;SDS011;27037;52.010;4.446;2023-07-20T03:46:07;2.05;;;1.85;;
41293;SDS011;27037;52.010;4.446;2023-07-20T03:48:33;6.15;;;1.95;;
41293;SDS011;27037;52.010;4.446;2023-07-20T03:50:59;2.75;;;2.00;;
41293;SDS011;27037;52.010;4.446;2023-07-20T03:53:27;4.45;;;1.70;;
41293;SDS011;27037;52.010;4.446;2023-07-20T03:55:53;4.82;;;2.00;;
41293;SDS011;27037;52.010;4.446;2023-07-20T03:58:20;4.40;;;1.98;;
41293;SDS011;27037;52.010;4.446;2023-07-20T04:00:47;5.97;;;2.33;;
41293;SDS011;27037;52.010;4.446;2023-07-20T04:03:16;3.95;;;2.00;;
41293;SDS011;27037;52.010;4.446;2023-07-20T04:05:43;3.47;;;2.40;;
41293;SDS011;27037;52.010;4.446;2023-07-20T04:08:09;4.10;;;2.25;;
41293;SDS011;27037;52.010;4.446;2023-07-20T04:10:36;2.83;;;2.30;;
41293;SDS011;27037;52.010;4.446;2023-07-20T04:13:02;4.70;;;2.70;;
41293;SDS011;27037;52.010;4.446;2023-07-20T04:15:27;4.03;;;2.28;;
41293;SDS011;27037;52.010;4.446;2023-07-20T04:17:53;3.13;;;2.50;;
41293;SDS011;27037;52.010;4.446;2023-07-20T04:20:21;3.95;;;2.60;;
41293;SDS011;27037;52.010;4.446;2023-07-20T04:22:47;4.03;;;2.55;;
41293;SDS011;27037;52.010;4.446;2023-07-20T04:25:13;4.30;;;2.85;;
41293;SDS011;27037;52.010;4.446;2023-07-20T04:27:39;4.45;;;2.58;;
41293;SDS011;27037;52.010;4.446;2023-07-20T04:30:06;5.57;;;2.40;;
41293;SDS011;27037;52.010;4.446;2023-07-20T04:32:33;3.25;;;2.50;;
41293;SDS011;27037;52.010;4.446;2023-07-20T04:34:59;3.10;;;2.40;;
41293;SDS011;27037;52.010;4.446;2023-07-20T04:37:24;5.47;;;2.40;;
41293;SDS011;27037;52.010;4.446;2023-07-20T04:39:50;4.18;;;2.78;;
41293;SDS011;27037;52.010;4.446;2023-07-20T04:42:15;3.97;;;2.60;;
41293;SDS011;27037;52.010;4.446;2023-07-20T04:44:41;6.53;;;3.20;;
41293;SDS011;27037;52.010;4.446;2023-07-20T04:47:07;7.72;;;3.30;;
41293;SDS011;27037;52.010;4.446;2023-07-20T04:49:33;10.52;;;4.07;;
41293;SDS011;27037;52.010;4.446;2023-07-20T04:51:59;8.00;;;3.33;;
41293;SDS011;27037;52.010;4.446;2023-07-20T04:54:25;6.35;;;3.88;;
41293;SDS011;27037;52.010;4.446;2023-07-20T04:56:52;6.85;;;3.30;;
41293;SDS011;27037;52.010;4.446;2023-07-20T04:59:18;5.50;;;3.33;;
41293;SDS011;27037;52.010;4.446;2023-07-20T05:01:44;7.10;;;3.60;;
41293;SDS011;27037;52.010;4.446;2023-07-20T05:04:10;6.47;;;3.30;;
41293;SDS011;27037;52.010;4.446;2023-07-20T05:06:35;8.52;;;3.63;;
41293;SDS011;27037;52.010;4.446;2023-07-20T05:09:01;9.15;;;3.20;;
41293;SDS011;27037;52.010;4.446;2023-07-20T05:11:27;7.80;;;3.50;;
41293;SDS011;27037;52.010;4.446;2023-07-20T05:13:52;7.25;;;3.20;;
41293;SDS011;27037;52.010;4.446;2023-07-20T05:16:18;6.47;;;2.75;;
41293;SDS011;27037;52.010;4.446;2023-07-20T05:18:43;6.95;;;2.90;;
41293;SDS011;27037;52.010;4.446;2023-07-20T05:21:09;4.40;;;3.55;;
41293;SDS011;27037;52.010;4.446;2023-07-20T05:23:35;4.78;;;3.28;;
41293;SDS011;27037;52.010;4.446;2023-07-20T05:26:00;5.55;;;3.33;;
41293;SDS011;27037;52.010;4.446;2023-07-20T05:28:26;9.00;;;3.60;;
41293;SDS011;27037;52.010;4.446;2023-07-20T05:30:52;6.55;;;3.47;;
41293;SDS011;27037;52.010;4.446;2023-07-20T05:33:19;5.10;;;3.60;;
41293;SDS011;27037;52.010;4.446;2023-07-20T05:35:45;6.78;;;3.53;;
41293;SDS011;27037;52.010;4.446;2023-07-20T05:38:11;5.57;;;3.58;;
41293;SDS011;27037;52.010;4.446;2023-07-20T05:40:37;4.65;;;3.55;;
41293;SDS011;27037;52.010;4.446;2023-07-20T05:43:05;3.90;;;3.08;;
41293;SDS011;27037;52.010;4.446;2023-07-20T05:45:30;4.07;;;3.40;;
41293;SDS011;27037;52.010;4.446;2023-07-20T05:47:56;5.47;;;2.78;;
41293;SDS011;27037;52.010;4.446;2023-07-20T05:50:21;5.35;;;3.08;;
41293;SDS011;27037;52.010;4.446;2023-07-20T05:52:47;6.82;;;3.35;;
41293;SDS011;27037;52.010;4.446;2023-07-20T05:55:13;4.07;;;3.10;;
41293;SDS011;27037;52.010;4.446;2023-07-20T05:57:39;6.32;;;3.50;;
41293;SDS011;27037;52.010;4.446;2023-07-20T06:00:07;5.22;;;3.20;;
41293;SDS011;27037;52.010;4.446;2023-07-20T06:02:33;6.25;;;3.50;;
41293;SDS011;27037;52.010;4.446;2023-07-20T06:04:59;5.22;;;3.53;;
41293;SDS011;27037;52.010;4.446;2023-07-20T06:07:25;5.70;;;3.38;;
41293;SDS011;27037;52.010;4.446;2023-07-20T06:09:50;2.88;;;2.58;;
41293;SDS011;27037;52.010;4.446;2023-07-20T06:12:16;2.90;;;2.28;;
41293;SDS011;27037;52.010;4.446;2023-07-20T06:14:42;3.63;;;2.45;;
41293;SDS011;27037;52.010;4.446;2023-07-20T06:17:07;3.88;;;2.70;;
41293;SDS011;27037;52.010;4.446;2023-07-20T06:19:33;4.00;;;2.35;;
41293;SDS011;27037;52.010;4.446;2023-07-20T06:21:59;3.20;;;2.30;;
41293;SDS011;27037;52.010;4.446;2023-07-20T06:24:24;4.10;;;2.33;;
41293;SDS011;27037;52.010;4.446;2023-07-20T06:26:50;3.47;;;2.50;;
41293;SDS011;27037;52.010;4.446;2023-07-20T06:29:15;3.75;;;2.70;;
41293;SDS011;27037;52.010;4.446;2023-07-20T06:31:41;5.25;;;2.67;;
41293;SDS011;27037;52.010;4.446;2023-07-20T06:34:07;6.30;;;3.00;;
41293;SDS011;27037;52.010;4.446;2023-07-20T06:36:32;4.55;;;3.13;;
41293;SDS011;27037;52.010;4.446;2023-07-20T06:38:58;4.95;;;3.22;;
41293;SDS011;27037;52.010;4.446;2023-07-20T06:41:23;5.95;;;3.90;;
41293;SDS011;27037;52.010;4.446;2023-07-20T06:43:49;7.07;;;3.28;;
41293;SDS011;27037;52.010;4.446;2023-07-20T06:46:15;2.42;;;1.52;;
41293;SDS011;27037;52.010;4.446;2023-07-20T06:48:41;2.05;;;1.52;;
41293;SDS011;27037;52.010;4.446;2023-07-20T06:51:06;4.15;;;1.40;;
41293;SDS011;27037;52.010;4.446;2023-07-20T06:53:32;5.22;;;1.63;;
41293;SDS011;27037;52.010;4.446;2023-07-20T06:55:57;5.55;;;2.08;;
41293;SDS011;27037;52.010;4.446;2023-07-20T06:58:23;2.03;;;1.60;;
41293;SDS011;27037;52.010;4.446;2023-07-20T07:00:49;2.55;;;1.50;;
41293;SDS011;27037;52.010;4.446;2023-07-20T07:03:15;2.60;;;1.45;;
41293;SDS011;27037;52.010;4.446;2023-07-20T07:05:41;3.65;;;1.75;;
41293;SDS011;27037;52.010;4.446;2023-07-20T07:08:08;2.90;;;1.55;;
41293;SDS011;27037;52.010;4.446;2023-07-20T07:10:34;2.80;;;1.58;;
41293;SDS011;27037;52.010;4.446;2023-07-20T07:13:01;2.47;;;1.60;;
41293;SDS011;27037;52.010;4.446;2023-07-20T07:15:27;2.95;;;1.60;;
41293;SDS011;27037;52.010;4.446;2023-07-20T07:17:53;4.78;;;1.40;;
41293;SDS011;27037;52.010;4.446;2023-07-20T07:20:18;3.38;;;1.52;;
41293;SDS011;27037;52.010;4.446;2023-07-20T07:22:44;2.90;;;1.20;;
41293;SDS011;27037;52.010;4.446;2023-07-20T07:25:10;4.47;;;1.42;;
41293;SDS011;27037;52.010;4.446;2023-07-20T07:27:36;2.72;;;1.30;;
41293;SDS011;27037;52.010;4.446;2023-07-20T07:30:05;2.00;;;1.50;;
41293;SDS011;27037;52.010;4.446;2023-07-20T07:32:31;1.88;;;1.30;;
41293;SDS011;27037;52.010;4.446;2023-07-20T07:34:56;3.55;;;1.30;;
41293;SDS011;27037;52.010;4.446;2023-07-20T07:37:25;2.83;;;1.25;;
41293;SDS011;27037;52.010;4.446;2023-07-20T07:39:51;2.10;;;1.30;;
41293;SDS011;27037;52.010;4.446;2023-07-20T07:42:17;4.35;;;1.20;;
41293;SDS011;27037;52.010;4.446;2023-07-20T07:44:43;3.10;;;1.42;;
41293;SDS011;27037;52.010;4.446;2023-07-20T07:47:09;2.30;;;1.05;;
41293;SDS011;27037;52.010;4.446;2023-07-20T07:49:35;4.93;;;1.10;;
41293;SDS011;27037;52.010;4.446;2023-07-20T07:52:01;2.80;;;1.25;;
41293;SDS011;27037;52.010;4.446;2023-07-20T07:54:29;2.25;;;1.10;;
41293;SDS011;27037;52.010;4.446;2023-07-20T07:56:55;1.80;;;1.05;;
41293;SDS011;27037;52.010;4.446;2023-07-20T07:59:21;2.33;;;1.00;;
41293;SDS011;27037;52.010;4.446;2023-07-20T08:01:47;4.78;;;0.90;;
41293;SDS011;27037;52.010;4.446;2023-07-20T08:04:13;2.30;;;0.95;;
41293;SDS011;27037;52.010;4.446;2023-07-20T08:06:38;3.63;;;1.05;;
41293;SDS011;27037;52.010;4.446;2023-07-20T08:09:04;0.88;;;0.80;;
41293;SDS011;27037;52.010;4.446;2023-07-20T08:11:30;1.98;;;0.90;;
41293;SDS011;27037;52.010;4.446;2023-07-20T08:13:59;2.55;;;1.00;;
41293;SDS011;27037;52.010;4.446;2023-07-20T08:16:25;2.13;;;0.90;;
41293;SDS011;27037;52.010;4.446;2023-07-20T08:18:50;1.60;;;1.02;;
41293;SDS011;27037;52.010;4.446;2023-07-20T08:21:16;1.40;;;0.95;;
41293;SDS011;27037;52.010;4.446;2023-07-20T08:23:42;1.10;;;0.73;;
41293;SDS011;27037;52.010;4.446;2023-07-20T08:26:07;3.72;;;0.95;;
41293;SDS011;27037;52.010;4.446;2023-07-20T08:28:33;1.77;;;1.00;;
41293;SDS011;27037;52.010;4.446;2023-07-20T08:31:00;2.42;;;1.10;;
41293;SDS011;27037;52.010;4.446;2023-07-20T08:33:25;3.20;;;0.95;;
41293;SDS011;27037;52.010;4.446;2023-07-20T08:35:54;4.88;;;1.02;;
41293;SDS011;27037;52.010;4.446;2023-07-20T08:38:21;1.17;;;1.00;;
41293;SDS011;27037;52.010;4.446;2023-07-20T08:40:47;3.65;;;0.93;;
41293;SDS011;27037;52.010;4.446;2023-07-20T08:43:13;2.50;;;1.08;;
41293;SDS011;27037;52.010;4.446;2023-07-20T08:45:41;3.33;;;1.05;;
41293;SDS011;27037;52.010;4.446;2023-07-20T08:48:07;1.92;;;1.00;;
41293;SDS011;27037;52.010;4.446;2023-07-20T08:50:34;1.83;;;0.93;;
41293;SDS011;27037;52.010;4.446;2023-07-20T08:53:00;4.25;;;1.05;;
41293;SDS011;27037;52.010;4.446;2023-07-20T08:55:27;2.67;;;0.95;;
41293;SDS011;27037;52.010;4.446;2023-07-20T08:57:54;2.17;;;0.95;;
41293;SDS011;27037;52.010;4.446;2023-07-20T09:00:21;3.63;;;1.05;;
41293;SDS011;27037;52.010;4.446;2023-07-20T09:02:49;4.50;;;1.10;;
41293;SDS011;27037;52.010;4.446;2023-07-20T09:05:16;4.22;;;1.00;;
41293;SDS011;27037;52.010;4.446;2023-07-20T09:07:43;1.35;;;0.85;;
41293;SDS011;27037;52.010;4.446;2023-07-20T09:10:09;1.27;;;0.90;;
41293;SDS011;27037;52.010;4.446;2023-07-20T09:12:36;2.80;;;0.80;;
41293;SDS011;27037;52.010;4.446;2023-07-20T09:15:06;1.60;;;0.70;;
41293;SDS011;27037;52.010;4.446;2023-07-20T09:17:33;2.88;;;0.90;;
41293;SDS011;27037;52.010;4.446;2023-07-20T09:19:59;1.00;;;0.73;;
41293;SDS011;27037;52.010;4.446;2023-07-20T09:22:32;0.82;;;0.60;;
41293;SDS011;27037;52.010;4.446;2023-07-20T09:24:58;1.40;;;0.70;;
41293;SDS011;27037;52.010;4.446;2023-07-20T09:27:37;2.30;;;0.82;;
41293;SDS011;27037;52.010;4.446;2023-07-20T09:30:04;2.55;;;0.73;;
41293;SDS011;27037;52.010;4.446;2023-07-20T09:35:17;1.67;;;0.95;;
41293;SDS011;27037;52.010;4.446;2023-07-20T09:37:47;11.38;;;1.02;;
41293;SDS011;27037;52.010;4.446;2023-07-20T09:40:19;50.92;;;3.28;;
41293;SDS011;27037;52.010;4.446;2023-07-20T09:42:45;4.65;;;0.90;;
41293;SDS011;27037;52.010;4.446;2023-07-20T09:45:11;7.78;;;1.00;;
41293;SDS011;27037;52.010;4.446;2023-07-20T09:47:37;4.65;;;1.10;;
41293;SDS011;27037;52.010;4.446;2023-07-20T09:50:04;3.00;;;0.70;;
41293;SDS011;27037;52.010;4.446;2023-07-20T09:52:35;1.58;;;0.88;;
41293;SDS011;27037;52.010;4.446;2023-07-20T09:57:39;1.10;;;0.63;;
41293;SDS011;27037;52.010;4.446;2023-07-20T10:00:06;1.15;;;0.80;;
41293;SDS011;27037;52.010;4.446;2023-07-20T10:02:37;3.65;;;0.80;;
41293;SDS011;27037;52.010;4.446;2023-07-20T10:05:08;1.00;;;0.70;;
41293;SDS011;27037;52.010;4.446;2023-07-20T10:07:39;1.23;;;0.80;;
41293;SDS011;27037;52.010;4.446;2023-07-20T10:10:13;2.22;;;0.77;;
41293;SDS011;27037;52.010;4.446;2023-07-20T10:12:41;4.80;;;0.82;;
41293;SDS011;27037;52.010;4.446;2023-07-20T10:15:14;4.22;;;0.88;;
41293;SDS011;27037;52.010;4.446;2023-07-20T10:17:51;5.07;;;0.80;;
41293;SDS011;27037;52.010;4.446;2023-07-20T10:20:19;3.67;;;0.90;;
41293;SDS011;27037;52.010;4.446;2023-07-20T10:22:46;1.38;;;0.70;;
41293;SDS011;27037;52.010;4.446;2023-07-20T10:25:13;5.05;;;0.77;;
41293;SDS011;27037;52.010;4.446;2023-07-20T10:27:39;3.08;;;0.85;;
41293;SDS011;27037;52.010;4.446;2023-07-20T10:30:05;0.85;;;0.70;;
41293;SDS011;27037;52.010;4.446;2023-07-20T10:32:32;2.63;;;0.90;;
41293;SDS011;27037;52.010;4.446;2023-07-20T10:34:58;2.03;;;0.70;;
41293;SDS011;27037;52.010;4.446;2023-07-20T10:40:27;1.80;;;0.82;;
41293;SDS011;27037;52.010;4.446;2023-07-20T10:43:02;1.30;;;0.70;;
41293;SDS011;27037;52.010;4.446;2023-07-20T10:45:42;1.60;;;0.85;;
41293;SDS011;27037;52.010;4.446;2023-07-20T10:48:18;4.05;;;0.80;;
41293;SDS011;27037;52.010;4.446;2023-07-20T10:53:37;1.60;;;0.80;;
41293;SDS011;27037;52.010;4.446;2023-07-20T10:56:11;1.70;;;0.80;;
41293;SDS011;27037;52.010;4.446;2023-07-20T10:58:39;2.75;;;0.77;;
41293;SDS011;27037;52.010;4.446;2023-07-20T11:01:06;1.63;;;0.80;;
41293;SDS011;27037;52.010;4.446;2023-07-20T11:03:37;1.83;;;0.85;;
41293;SDS011;27037;52.010;4.446;2023-07-20T11:11:44;1.58;;;0.90;;
41293;SDS011;27037;52.010;4.446;2023-07-20T11:14:24;1.85;;;0.85;;
41293;SDS011;27037;52.010;4.446;2023-07-20T11:16:51;2.22;;;0.60;;
41293;SDS011;27037;52.010;4.446;2023-07-20T11:19:18;3.05;;;1.00;;
41293;SDS011;27037;52.010;4.446;2023-07-20T11:21:45;1.90;;;0.70;;
41293;SDS011;27037;52.010;4.446;2023-07-20T11:24:11;1.95;;;0.80;;
41293;SDS011;27037;52.010;4.446;2023-07-20T11:26:45;1.25;;;1.00;;
41293;SDS011;27037;52.010;4.446;2023-07-20T11:29:14;2.13;;;0.90;;
41293;SDS011;27037;52.010;4.446;2023-07-20T11:31:42;2.47;;;0.73;;
41293;SDS011;27037;52.010;4.446;2023-07-20T11:34:10;1.65;;;0.70;;
41293;SDS011;27037;52.010;4.446;2023-07-20T11:36:40;1.90;;;0.80;;
41293;SDS011;27037;52.010;4.446;2023-07-20T11:39:10;1.42;;;0.88;;
41293;SDS011;27037;52.010;4.446;2023-07-20T11:41:37;2.53;;;0.90;;
41293;SDS011;27037;52.010;4.446;2023-07-20T11:44:04;2.22;;;0.77;;
41293;SDS011;27037;52.010;4.446;2023-07-20T11:46:38;3.03;;;1.10;;
41293;SDS011;27037;52.010;4.446;2023-07-20T11:49:04;2.25;;;0.88;;
41293;SDS011;27037;52.010;4.446;2023-07-20T11:51:31;1.80;;;0.75;;
41293;SDS011;27037;52.010;4.446;2023-07-20T11:53:57;1.85;;;0.75;;
41293;SDS011;27037;52.010;4.446;2023-07-20T11:56:24;1.85;;;0.70;;
41293;SDS011;27037;52.010;4.446;2023-07-20T11:58:53;1.90;;;0.80;;
41293;SDS011;27037;52.010;4.446;2023-07-20T12:01:20;1.58;;;0.90;;
41293;SDS011;27037;52.010;4.446;2023-07-20T12:03:45;2.05;;;0.80;;
41293;SDS011;27037;52.010;4.446;2023-07-20T12:06:13;1.15;;;0.80;;
41293;SDS011;27037;52.010;4.446;2023-07-20T12:08:39;1.83;;;0.90;;
41293;SDS011;27037;52.010;4.446;2023-07-20T12:11:09;1.48;;;0.77;;
41293;SDS011;27037;52.010;4.446;2023-07-20T12:13:35;1.83;;;1.00;;
41293;SDS011;27037;52.010;4.446;2023-07-20T12:16:12;2.57;;;0.80;;
41293;SDS011;27037;52.010;4.446;2023-07-20T12:18:40;1.90;;;0.88;;
41293;SDS011;27037;52.010;4.446;2023-07-20T12:21:07;1.92;;;0.88;;
41293;SDS011;27037;52.010;4.446;2023-07-20T12:23:37;1.83;;;0.73;;
41293;SDS011;27037;52.010;4.446;2023-07-20T12:26:05;1.60;;;0.70;;
41293;SDS011;27037;52.010;4.446;2023-07-20T12:28:36;2.70;;;0.80;;
41293;SDS011;27037;52.010;4.446;2023-07-20T12:31:08;1.00;;;0.65;;
41293;SDS011;27037;52.010;4.446;2023-07-20T12:33:35;0.73;;;0.60;;
41293;SDS011;27037;52.010;4.446;2023-07-20T12:36:04;0.70;;;0.70;;
41293;SDS011;27037;52.010;4.446;2023-07-20T12:38:30;2.35;;;0.93;;
41293;SDS011;27037;52.010;4.446;2023-07-20T12:40:56;3.20;;;1.00;;
41293;SDS011;27037;52.010;4.446;2023-07-20T12:43:23;1.33;;;0.70;;
41293;SDS011;27037;52.010;4.446;2023-07-20T12:45:49;0.95;;;0.60;;
41293;SDS011;27037;52.010;4.446;2023-07-20T12:48:14;3.80;;;0.95;;
41293;SDS011;27037;52.010;4.446;2023-07-20T12:50:40;1.13;;;0.70;;
41293;SDS011;27037;52.010;4.446;2023-07-20T12:53:06;3.80;;;0.60;;
41293;SDS011;27037;52.010;4.446;2023-07-20T12:55:32;3.15;;;0.75;;
41293;SDS011;27037;52.010;4.446;2023-07-20T12:57:58;5.45;;;0.82;;
41293;SDS011;27037;52.010;4.446;2023-07-20T13:00:24;2.20;;;0.60;;
41293;SDS011;27037;52.010;4.446;2023-07-20T13:02:52;0.95;;;0.70;;
41293;SDS011;27037;52.010;4.446;2023-07-20T13:05:18;2.53;;;0.60;;
41293;SDS011;27037;52.010;4.446;2023-07-20T13:07:43;2.95;;;0.70;;
41293;SDS011;27037;52.010;4.446;2023-07-20T13:10:09;3.05;;;0.70;;
41293;SDS011;27037;52.010;4.446;2023-07-20T13:12:36;0.95;;;0.60;;
41293;SDS011;27037;52.010;4.446;2023-07-20T13:15:03;1.40;;;0.82;;
41293;SDS011;27037;52.010;4.446;2023-07-20T13:17:36;1.67;;;0.60;;
41293;SDS011;27037;52.010;4.446;2023-07-20T13:20:04;1.15;;;0.60;;
41293;SDS011;27037;52.010;4.446;2023-07-20T13:22:31;0.70;;;0.57;;
41293;SDS011;27037;52.010;4.446;2023-07-20T13:24:57;1.58;;;0.73;;
41293;SDS011;27037;52.010;4.446;2023-07-20T13:27:23;1.25;;;0.80;;
41293;SDS011;27037;52.010;4.446;2023-07-20T13:29:50;2.05;;;0.68;;
41293;SDS011;27037;52.010;4.446;2023-07-20T13:32:16;3.03;;;0.75;;
41293;SDS011;27037;52.010;4.446;2023-07-20T13:34:46;1.48;;;0.60;;
41293;SDS011;27037;52.010;4.446;2023-07-20T13:37:12;1.30;;;0.73;;
41293;SDS011;27037;52.010;4.446;2023-07-20T13:39:37;4.30;;;0.82;;
41293;SDS011;27037;52.010;4.446;2023-07-20T13:42:04;1.95;;;0.63;;
41293;SDS011;27037;52.010;4.446;2023-07-20T13:44:31;1.25;;;0.70;;
41293;SDS011;27037;52.010;4.446;2023-07-20T13:46:57;1.60;;;0.80;;
41293;SDS011;27037;52.010;4.446;2023-07-20T13:49:23;0.60;;;0.40;;
41293;SDS011;27037;52.010;4.446;2023-07-20T13:51:49;0.77;;;0.55;;
41293;SDS011;27037;52.010;4.446;2023-07-20T13:54:14;1.52;;;0.70;;
41293;SDS011;27037;52.010;4.446;2023-07-20T13:56:40;1.17;;;0.68;;
41293;SDS011;27037;52.010;4.446;2023-07-20T13:59:06;2.30;;;0.50;;
41293;SDS011;27037;52.010;4.446;2023-07-20T14:01:32;2.42;;;0.70;;
41293;SDS011;27037;52.010;4.446;2023-07-20T14:03:59;1.20;;;0.70;;
41293;SDS011;27037;52.010;4.446;2023-07-20T14:06:25;1.98;;;0.60;;
41293;SDS011;27037;52.010;4.446;2023-07-20T14:08:51;2.40;;;0.82;;
41293;SDS011;27037;52.010;4.446;2023-07-20T14:11:18;1.08;;;0.50;;
41293;SDS011;27037;52.010;4.446;2023-07-20T14:13:43;0.73;;;0.50;;
41293;SDS011;27037;52.010;4.446;2023-07-20T14:16:09;2.58;;;0.63;;
41293;SDS011;27037;52.010;4.446;2023-07-20T14:18:35;1.67;;;0.60;;
41293;SDS011;27037;52.010;4.446;2023-07-20T14:21:01;1.48;;;0.60;;
41293;SDS011;27037;52.010;4.446;2023-07-20T14:23:28;1.52;;;0.75;;
41293;SDS011;27037;52.010;4.446;2023-07-20T14:25:54;0.80;;;0.47;;
41293;SDS011;27037;52.010;4.446;2023-07-20T14:28:20;1.40;;;0.45;;
41293;SDS011;27037;52.010;4.446;2023-07-20T14:30:46;1.55;;;0.60;;
41293;SDS011;27037;52.010;4.446;2023-07-20T14:33:12;2.28;;;0.52;;
41293;SDS011;27037;52.010;4.446;2023-07-20T14:35:37;1.42;;;0.70;;
41293;SDS011;27037;52.010;4.446;2023-07-20T14:38:03;1.75;;;0.60;;
41293;SDS011;27037;52.010;4.446;2023-07-20T14:40:28;3.53;;;0.40;;
41293;SDS011;27037;52.010;4.446;2023-07-20T14:42:55;1.33;;;0.57;;
41293;SDS011;27037;52.010;4.446;2023-07-20T14:45:21;0.77;;;0.50;;
41293;SDS011;27037;52.010;4.446;2023-07-20T14:47:47;1.27;;;0.50;;
41293;SDS011;27037;52.010;4.446;2023-07-20T14:50:18;0.90;;;0.57;;
41293;SDS011;27037;52.010;4.446;2023-07-20T14:52:44;0.70;;;0.50;;
41293;SDS011;27037;52.010;4.446;2023-07-20T14:55:10;1.38;;;0.60;;
41293;SDS011;27037;52.010;4.446;2023-07-20T14:57:36;3.28;;;1.13;;
41293;SDS011;27037;52.010;4.446;2023-07-20T15:00:02;1.40;;;1.20;;
41293;SDS011;27037;52.010;4.446;2023-07-20T15:02:32;2.15;;;0.60;;
41293;SDS011;27037;52.010;4.446;2023-07-20T15:04:58;1.75;;;0.60;;
41293;SDS011;27037;52.010;4.446;2023-07-20T15:07:25;0.90;;;0.70;;
41293;SDS011;27037;52.010;4.446;2023-07-20T15:09:50;1.45;;;0.60;;
41293;SDS011;27037;52.010;4.446;2023-07-20T15:12:16;0.70;;;0.60;;
41293;SDS011;27037;52.010;4.446;2023-07-20T15:14:42;2.15;;;0.60;;